Time;durP1;ratioP1;P1;durP2;ratioP2;P2;SDS_P1;SDS_P2;PMS_P1;PMS_P2;Temp;Humidity;BMP_temperature;BMP_pressure;BME280_temperature;BME280_humidity;BME280_pressure;Samples;Min_cycle;Max_cycle;Signal;HPM_P1;HPM_P2
2024/02/12 00:02:18;;;;;;;1.75;1.00;;;6.00;99.90;;;;;;5049197;28;20211;-76
2024/02/12 00:04:47;;;;;;;1.13;0.95;;;6.00;99.90;;;;;;5046074;28;20210;-75
2024/02/12 00:07:14;;;;;;;1.23;1.13;;;5.90;99.90;;;;;;5044986;28;20204;-76
2024/02/12 00:09:41;;;;;;;0.93;0.90;;;5.90;99.90;;;;;;5045433;28;20192;-76
2024/02/12 00:12:09;;;;;;;1.00;0.90;;;5.90;99.90;;;;;;5044651;28;20200;-75
2024/02/12 00:14:36;;;;;;;1.35;0.90;;;5.90;99.90;;;;;;5047565;28;20207;-75
2024/02/12 00:17:05;;;;;;;1.42;0.90;;;5.90;99.90;;;;;;5048572;28;20230;-75
2024/02/12 00:19:34;;;;;;;2.80;0.85;;;5.90;99.90;;;;;;5048229;28;20554;-77
2024/02/12 00:22:02;;;;;;;1.98;0.77;;;6.00;99.90;;;;;;5048392;28;20207;-76
2024/02/12 00:24:29;;;;;;;1.13;1.02;;;6.00;99.90;;;;;;5046737;28;20271;-76
2024/02/12 00:26:59;;;;;;;1.65;1.55;;;6.00;99.90;;;;;;5040297;28;20206;-76
2024/02/12 00:29:27;;;;;;;1.73;1.10;;;6.20;99.90;;;;;;5048449;28;20223;-76
2024/02/12 00:31:56;;;;;;;1.50;0.70;;;6.10;99.90;;;;;;5049081;28;20200;-76
2024/02/12 00:34:23;;;;;;;1.02;0.93;;;6.10;99.90;;;;;;5045342;28;20251;-76
2024/02/12 00:36:50;;;;;;;1.20;1.20;;;7.10;99.90;;;;;;5047290;28;20209;-76
2024/02/12 00:39:18;;;;;;;1.00;0.93;;;6.10;99.90;;;;;;5049216;28;20214;-76
2024/02/12 00:41:49;;;;;;;0.90;0.90;;;6.20;99.90;;;;;;5049247;28;20212;-76
2024/02/12 00:44:16;;;;;;;2.13;1.13;;;6.20;99.90;;;;;;5047458;28;20204;-76
2024/02/12 00:46:46;;;;;;;1.00;0.60;;;6.20;99.90;;;;;;5048626;28;20672;-76
2024/02/12 00:49:14;;;;;;;1.10;0.80;;;6.20;99.90;;;;;;5049080;28;20666;-76
2024/02/12 00:51:41;;;;;;;0.85;0.80;;;6.10;99.90;;;;;;5048718;28;20199;-76
2024/02/12 00:54:10;;;;;;;1.83;1.25;;;6.00;99.90;;;;;;5036324;28;20729;-75
2024/02/12 00:56:42;;;;;;;1.08;0.98;;;6.00;99.90;;;;;;5046366;28;20203;-75
2024/02/12 00:59:09;;;;;;;0.77;0.75;;;6.00;99.90;;;;;;5047886;28;20200;-76
2024/02/12 01:01:37;;;;;;;0.88;0.75;;;6.00;99.90;;;;;;5045865;28;20269;-76
2024/02/12 01:04:05;;;;;;;1.30;1.20;;;6.00;99.90;;;;;;5047596;28;20215;-75
2024/02/12 01:06:31;;;;;;;0.85;0.85;;;6.10;99.90;;;;;;5045089;28;20227;-76
2024/02/12 01:08:58;;;;;;;0.90;0.70;;;6.10;99.90;;;;;;5049027;28;20208;-76
2024/02/12 01:11:28;;;;;;;1.42;1.00;;;6.20;99.90;;;;;;5045687;28;20207;-76
2024/02/12 01:13:56;;;;;;;2.05;1.50;;;6.10;99.90;;;;;;5045437;28;20253;-76
2024/02/12 01:16:24;;;;;;;3.10;1.58;;;6.10;99.90;;;;;;5047772;28;20208;-75
2024/02/12 01:18:53;;;;;;;1.40;1.10;;;6.10;99.90;;;;;;5046995;28;20207;-76
2024/02/12 01:21:20;;;;;;;1.67;1.15;;;6.20;99.90;;;;;;5047400;28;20206;-76
2024/02/12 01:23:47;;;;;;;2.03;1.33;;;6.30;99.90;;;;;;5046516;28;20685;-76
2024/02/12 01:26:14;;;;;;;1.35;0.93;;;6.30;99.90;;;;;;5045149;28;20576;-76
2024/02/12 01:28:41;;;;;;;1.30;1.20;;;6.10;99.90;;;;;;5048587;28;20208;-76
2024/02/12 01:31:17;;;;;;;1.58;1.15;;;6.30;99.90;;;;;;5047039;28;20204;-75
2024/02/12 01:33:44;;;;;;;0.73;0.73;;;6.40;99.90;;;;;;5048185;28;20234;-77
2024/02/12 01:36:13;;;;;;;1.25;1.00;;;6.50;99.90;;;;;;5047916;28;20204;-76
2024/02/12 01:38:40;;;;;;;1.30;0.93;;;6.50;99.90;;;;;;5046885;28;20203;-76
2024/02/12 01:41:07;;;;;;;1.30;0.80;;;6.30;99.90;;;;;;5048455;28;20215;-75
2024/02/12 01:43:36;;;;;;;1.10;1.00;;;6.30;99.90;;;;;;5040715;28;20192;-76
2024/02/12 01:46:05;;;;;;;2.70;1.20;;;6.20;99.90;;;;;;5048023;28;20553;-76
2024/02/12 01:48:35;;;;;;;1.80;0.90;;;5.70;99.90;;;;;;5047763;28;20363;-76
2024/02/12 01:51:06;;;;;;;1.15;0.60;;;6.30;99.90;;;;;;5047526;28;20686;-76
2024/02/12 01:53:34;;;;;;;0.95;0.95;;;6.20;99.90;;;;;;5046399;28;20274;-76
2024/02/12 01:56:02;;;;;;;0.90;0.88;;;6.30;99.90;;;;;;5042852;28;20640;-76
2024/02/12 01:58:30;;;;;;;1.13;1.02;;;6.30;99.90;;;;;;5046515;28;20225;-76
2024/02/12 02:00:57;;;;;;;0.80;0.80;;;6.20;99.90;;;;;;5046948;28;20554;-76
2024/02/12 02:03:25;;;;;;;1.30;1.00;;;6.30;99.90;;;;;;5046227;28;20196;-77
2024/02/12 02:05:53;;;;;;;2.97;1.13;;;6.30;99.90;;;;;;5045732;28;20200;-76
2024/02/12 02:08:21;;;;;;;1.30;1.08;;;6.20;99.90;;;;;;5046834;28;20196;-76
2024/02/12 02:10:48;;;;;;;1.30;1.10;;;6.20;99.90;;;;;;5047378;28;20201;-76
2024/02/12 02:13:16;;;;;;;3.08;1.00;;;6.20;99.90;;;;;;5041318;28;20281;-76
2024/02/12 02:15:43;;;;;;;1.75;0.90;;;6.40;99.90;;;;;;5045430;28;20588;-76
2024/02/12 02:18:10;;;;;;;1.20;1.10;;;6.40;99.90;;;;;;5044909;28;20238;-76
2024/02/12 02:20:37;;;;;;;1.80;0.90;;;6.30;99.90;;;;;;5045357;28;20200;-76
2024/02/12 02:23:07;;;;;;;1.08;0.98;;;6.40;99.90;;;;;;5047216;28;20662;-76
2024/02/12 02:25:36;;;;;;;0.65;0.65;;;6.40;99.90;;;;;;5038780;28;20648;-76
2024/02/12 02:28:05;;;;;;;0.73;0.73;;;6.40;99.90;;;;;;5047831;28;20478;-76
2024/02/12 02:30:32;;;;;;;1.42;1.10;;;6.10;99.90;;;;;;5046733;28;20630;-76
2024/02/12 02:33:00;;;;;;;0.70;0.70;;;6.40;99.90;;;;;;5047280;28;20207;-77
2024/02/12 02:35:27;;;;;;;1.58;0.80;;;6.30;99.90;;;;;;5045793;28;20204;-75
2024/02/12 02:37:54;;;;;;;1.85;0.70;;;6.40;99.90;;;;;;5047340;28;20291;-75
2024/02/12 02:40:22;;;;;;;1.30;1.10;;;6.40;99.90;;;;;;5046435;28;20188;-76
2024/02/12 02:42:52;;;;;;;0.98;0.90;;;6.40;99.90;;;;;;5042707;28;20196;-75
2024/02/12 02:45:21;;;;;;;0.63;0.63;;;6.40;99.90;;;;;;5044765;28;20231;-76
2024/02/12 02:47:56;;;;;;;2.53;1.02;;;6.40;99.90;;;;;;5047818;28;20290;-75
2024/02/12 02:50:24;;;;;;;1.70;0.73;;;6.30;99.90;;;;;;5042591;28;20192;-75
2024/02/12 02:52:53;;;;;;;0.77;0.77;;;6.30;99.90;;;;;;5046103;28;20212;-75
2024/02/12 02:55:24;;;;;;;0.80;0.80;;;6.10;99.90;;;;;;5046099;28;20550;-75
2024/02/12 02:57:53;;;;;;;0.80;0.77;;;6.10;99.90;;;;;;5042095;28;20315;-75
2024/02/12 03:00:22;;;;;;;0.80;0.80;;;6.20;99.90;;;;;;5044850;28;20204;-76
2024/02/12 03:02:50;;;;;;;0.95;0.85;;;6.30;99.90;;;;;;5046129;28;20215;-75
2024/02/12 03:05:18;;;;;;;0.98;0.90;;;6.30;99.90;;;;;;5046107;28;20661;-75
2024/02/12 03:07:47;;;;;;;2.58;0.88;;;6.30;99.90;;;;;;5047246;28;20204;-76
2024/02/12 03:10:15;;;;;;;0.85;0.85;;;6.30;99.90;;;;;;5046798;28;20332;-74
2024/02/12 03:12:43;;;;;;;0.70;0.70;;;6.40;99.90;;;;;;5046557;28;20250;-76
2024/02/12 03:15:14;;;;;;;1.00;0.80;;;6.30;99.90;;;;;;5044512;28;21241;-75
2024/02/12 03:17:44;;;;;;;1.40;1.05;;;6.30;99.90;;;;;;5047273;28;20323;-75
2024/02/12 03:20:12;;;;;;;0.80;0.70;;;6.30;99.90;;;;;;5039634;28;20219;-75
2024/02/12 03:22:40;;;;;;;0.80;0.80;;;6.40;99.90;;;;;;5044905;28;20271;-75
2024/02/12 03:25:09;;;;;;;1.30;1.20;;;6.30;99.90;;;;;;5046100;28;20681;-75
2024/02/12 03:27:40;;;;;;;2.38;1.02;;;6.30;99.90;;;;;;5050748;28;20204;-75
2024/02/12 03:30:09;;;;;;;2.00;1.30;;;6.40;99.90;;;;;;5049152;28;20218;-75
2024/02/12 03:32:39;;;;;;;2.58;1.25;;;6.40;99.90;;;;;;5050316;28;20622;-75
2024/02/12 03:35:07;;;;;;;0.65;0.63;;;6.40;99.90;;;;;;5049203;28;20228;-76
2024/02/12 03:37:36;;;;;;;0.80;0.80;;;6.30;99.90;;;;;;5049274;28;20228;-76
2024/02/12 03:40:09;;;;;;;0.70;0.68;;;6.30;99.90;;;;;;5049943;28;21222;-75
2024/02/12 03:42:37;;;;;;;0.85;0.82;;;;;;;;;;5047376;28;20208;-76
2024/02/12 03:45:05;;;;;;;0.82;0.82;;;6.30;99.90;;;;;;5043988;28;20201;-75
2024/02/12 03:47:38;;;;;;;1.20;0.93;;;6.30;99.90;;;;;;5050550;28;20199;-75
2024/02/12 04:01:13;;;;;;;0.70;0.60;;;6.20;99.90;;;;;;5049242;28;20658;-74
2024/02/12 04:03:40;;;;;;;4.20;1.02;;;6.20;99.90;;;;;;5048699;28;20632;-75
2024/02/12 04:06:12;;;;;;;1.73;0.90;;;8.40;99.90;;;;;;5048521;28;20692;-75
2024/02/12 04:08:41;;;;;;;0.95;0.68;;;6.10;99.90;;;;;;5047594;28;20204;-75
2024/02/12 04:11:09;;;;;;;0.55;0.45;;;6.20;99.90;;;;;;5046647;28;20610;-75
2024/02/12 04:13:36;;;;;;;1.15;0.88;;;6.20;99.90;;;;;;5046358;28;20247;-75
2024/02/12 04:16:06;;;;;;;0.90;0.60;;;6.20;99.90;;;;;;5045578;28;20203;-75
2024/02/12 04:18:33;;;;;;;0.70;0.60;;;6.10;99.90;;;;;;5048471;28;20195;-75
2024/02/12 04:21:02;;;;;;;1.38;0.65;;;6.10;99.90;;;;;;5049774;28;20208;-75
2024/02/12 04:23:31;;;;;;;0.80;0.70;;;6.10;99.90;;;;;;5044571;28;20208;-75
2024/02/12 04:25:59;;;;;;;0.80;0.77;;;6.10;99.90;;;;;;5048881;28;20697;-76
2024/02/12 04:28:27;;;;;;;0.70;0.70;;;6.10;99.90;;;;;;5047928;28;20205;-76
2024/02/12 04:30:54;;;;;;;1.35;0.60;;;6.20;99.90;;;;;;5047408;28;20877;-76
2024/02/12 04:33:22;;;;;;;1.27;1.27;;;6.10;99.90;;;;;;5048095;28;20208;-75
2024/02/12 04:35:49;;;;;;;0.57;0.50;;;6.10;99.90;;;;;;5049632;28;20630;-76
2024/02/12 04:38:16;;;;;;;1.55;0.68;;;6.20;99.90;;;;;;5049481;28;20227;-75
2024/02/12 04:40:44;;;;;;;0.50;0.50;;;6.20;99.90;;;;;;5047956;28;20203;-75
2024/02/12 04:43:11;;;;;;;1.80;1.00;;;6.10;99.90;;;;;;5045684;28;20628;-75
2024/02/12 04:45:38;;;;;;;1.30;0.90;;;6.10;99.90;;;;;;5049003;28;20547;-78
2024/02/12 04:48:12;;;;;;;0.70;0.70;;;6.10;99.90;;;;;;5048816;28;20200;-76
2024/02/12 04:50:38;;;;;;;0.70;0.70;;;6.10;99.90;;;;;;5048709;28;20208;-76
2024/02/12 04:53:07;;;;;;;0.77;0.77;;;6.10;99.90;;;;;;5048858;28;20199;-76
2024/02/12 04:55:34;;;;;;;1.70;0.80;;;6.00;99.90;;;;;;5045569;28;20219;-76
2024/02/12 04:58:02;;;;;;;1.20;1.00;;;6.10;99.90;;;;;;5047353;28;20263;-76
2024/02/12 05:00:30;;;;;;;1.10;0.77;;;6.00;99.90;;;;;;5051617;28;20196;-76
2024/02/12 05:02:58;;;;;;;1.15;1.05;;;6.00;99.90;;;;;;5053630;28;20638;-75
2024/02/12 05:05:25;;;;;;;0.95;0.80;;;6.00;99.90;;;;;;5049087;28;20209;-75
2024/02/12 05:07:51;;;;;;;2.33;0.90;;;5.80;99.90;;;;;;5049073;28;20633;-75
2024/02/12 05:10:20;;;;;;;1.00;0.80;;;6.00;99.90;;;;;;5049058;28;20212;-75
2024/02/12 05:12:47;;;;;;;2.85;1.20;;;5.90;99.90;;;;;;5048704;28;20223;-75
2024/02/12 05:15:15;;;;;;;0.80;0.80;;;5.90;99.90;;;;;;5048969;28;20263;-76
2024/02/12 05:17:55;;;;;;;0.90;0.80;;;5.90;99.90;;;;;;5048596;28;20207;-76
2024/02/12 05:23:09;;;;;;;1.20;1.10;;;5.80;99.90;;;;;;5048271;28;20221;-75
2024/02/12 05:25:36;;;;;;;1.15;1.05;;;5.80;99.90;;;;;;5048752;28;20196;-75
2024/02/12 05:28:04;;;;;;;1.75;1.30;;;5.80;99.90;;;;;;5048785;28;20638;-75
2024/02/12 05:30:32;;;;;;;2.10;1.10;;;5.80;99.90;;;;;;5048562;28;20211;-75
2024/02/12 05:32:59;;;;;;;1.00;1.00;;;5.80;99.90;;;;;;5048110;28;20207;-75
2024/02/12 05:35:26;;;;;;;1.85;1.35;;;5.80;99.90;;;;;;5048855;28;20323;-76
2024/02/12 05:37:53;;;;;;;1.48;1.30;;;5.70;99.90;;;;;;5048585;28;20231;-75
2024/02/12 05:40:20;;;;;;;2.47;1.38;;;5.30;99.90;;;;;;5048286;28;20200;-76
2024/02/12 05:42:47;;;;;;;1.30;1.10;;;5.40;99.90;;;;;;5047652;28;20231;-76
2024/02/12 05:45:14;;;;;;;2.00;1.35;;;5.50;99.90;;;;;;5047492;28;20203;-75
2024/02/12 05:47:42;;;;;;;0.80;0.80;;;5.50;99.90;;;;;;5047446;28;20302;-75
2024/02/12 05:50:09;;;;;;;2.05;1.55;;;5.50;99.90;;;;;;5044718;28;20208;-73
2024/02/12 05:52:39;;;;;;;1.85;1.52;;;5.60;99.90;;;;;;5046327;28;20200;-72
2024/02/12 05:55:06;;;;;;;2.55;1.45;;;5.60;99.90;;;;;;5046085;28;20307;-71
2024/02/12 05:57:33;;;;;;;2.13;1.58;;;5.60;99.90;;;;;;5046577;28;20211;-72
2024/02/12 06:00:00;;;;;;;9.23;1.60;;;5.50;99.90;;;;;;5046841;28;20525;-71
2024/02/12 06:02:27;;;;;;;2.33;1.65;;;5.60;99.90;;;;;;5042347;28;20527;-70
2024/02/12 06:04:55;;;;;;;2.47;2.00;;;5.50;99.90;;;;;;5047717;28;20207;-69
2024/02/12 06:07:21;;;;;;;2.15;1.75;;;5.60;99.90;;;;;;5047865;28;20200;-72
2024/02/12 06:09:48;;;;;;;2.03;1.80;;;5.60;99.90;;;;;;5047776;28;20203;-70
2024/02/12 06:12:15;;;;;;;3.75;1.95;;;5.50;99.90;;;;;;5047562;28;20670;-70
2024/02/12 06:14:42;;;;;;;2.97;1.95;;;5.60;99.90;;;;;;5044621;28;20220;-71
2024/02/12 06:17:10;;;;;;;2.15;1.67;;;5.70;99.90;;;;;;5043020;28;20201;-71
2024/02/12 06:19:37;;;;;;;2.70;1.60;;;5.60;99.90;;;;;;5040372;28;20223;-72
2024/02/12 06:22:06;;;;;;;2.33;1.88;;;4.40;99.90;;;;;;5040632;28;20204;-75
2024/02/12 06:24:34;;;;;;;2.42;2.00;;;5.50;99.90;;;;;;5030813;28;20200;-75
2024/02/12 06:27:01;;;;;;;2.03;1.75;;;5.60;99.90;;;;;;5040666;28;20214;-75
2024/02/12 06:29:28;;;;;;;2.28;2.10;;;5.60;99.90;;;;;;5047064;28;20204;-74
2024/02/12 06:31:54;;;;;;;3.17;1.95;;;5.60;99.90;;;;;;5040455;28;20193;-75
2024/02/12 06:34:21;;;;;;;1.95;1.63;;;5.60;99.90;;;;;;5045077;28;20222;-75
2024/02/12 06:36:48;;;;;;;3.38;2.00;;;5.70;99.90;;;;;;5044375;28;20565;-76
2024/02/12 06:39:16;;;;;;;2.85;1.90;;;5.60;99.90;;;;;;5046288;28;20206;-75
2024/02/12 06:41:44;;;;;;;4.47;2.78;;;5.70;99.90;;;;;;5046531;28;20273;-75
2024/02/12 06:44:13;;;;;;;3.30;2.80;;;5.70;99.90;;;;;;5042787;28;20208;-76
2024/02/12 06:46:43;;;;;;;2.47;1.83;;;5.70;99.90;;;;;;5039277;28;20196;-76
2024/02/12 06:49:10;;;;;;;2.53;1.73;;;5.70;99.90;;;;;;5046269;28;20207;-76
2024/02/12 06:51:40;;;;;;;2.40;1.83;;;5.70;99.90;;;;;;5045331;28;20199;-76
2024/02/12 06:54:07;;;;;;;3.17;2.67;;;5.80;99.90;;;;;;5045078;28;20558;-76
2024/02/12 06:56:40;;;;;;;2.00;1.70;;;5.70;99.90;;;;;;5048991;28;20222;-75
2024/02/12 06:59:07;;;;;;;6.75;1.85;;;5.70;99.90;;;;;;5050226;28;20199;-74
2024/02/12 07:01:34;;;;;;;2.10;1.90;;;5.80;99.90;;;;;;5047559;28;20222;-74
2024/02/12 07:04:01;;;;;;;4.57;2.40;;;5.70;99.90;;;;;;5049450;28;20219;-78
2024/02/12 07:06:29;;;;;;;2.90;1.83;;;5.70;99.90;;;;;;5049940;28;20520;-78
2024/02/12 07:08:56;;;;;;;3.40;2.17;;;5.70;99.90;;;;;;5049951;28;20422;-75
2024/02/12 07:11:23;;;;;;;2.45;2.25;;;5.80;99.90;;;;;;5042422;28;20198;-76
2024/02/12 07:13:52;;;;;;;1.73;1.63;;;5.80;99.90;;;;;;5047933;28;20212;-77
2024/02/12 07:16:20;;;;;;;2.40;1.85;;;5.90;99.90;;;;;;5045409;28;20589;-78
2024/02/12 07:18:46;;;;;;;2.00;1.65;;;5.70;99.90;;;;;;5044088;28;20196;-76
2024/02/12 07:21:14;;;;;;;1.98;1.80;;;5.80;99.90;;;;;;5044912;28;20729;-76
2024/02/12 07:23:41;;;;;;;1.88;1.50;;;5.80;99.90;;;;;;5047895;28;20196;-74
2024/02/12 07:26:08;;;;;;;2.37;1.90;;;5.70;99.90;;;;;;5034485;28;20208;-75
2024/02/12 07:28:36;;;;;;;2.97;1.63;;;5.60;99.90;;;;;;5040844;28;21323;-76
2024/02/12 07:31:07;;;;;;;4.20;1.50;;;5.80;99.90;;;;;;5053015;28;20662;-76
2024/02/12 07:33:35;;;;;;;2.05;1.73;;;6.10;99.90;;;;;;5047183;28;20228;-76
2024/02/12 07:36:03;;;;;;;7.10;2.25;;;6.00;99.90;;;;;;5049413;28;20314;-76
2024/02/12 07:38:30;;;;;;;7.53;1.80;;;6.10;99.90;;;;;;5044831;28;20279;-76
2024/02/12 07:40:57;;;;;;;2.38;2.15;;;6.00;99.90;;;;;;5049370;28;20637;-76
2024/02/12 07:43:25;;;;;;;1.83;1.73;;;6.20;99.90;;;;;;5048041;28;20230;-76
2024/02/12 07:45:53;;;;;;;2.00;1.77;;;6.20;99.90;;;;;;5042370;28;20638;-76
2024/02/12 07:48:22;;;;;;;1.57;1.47;;;6.20;99.90;;;;;;5048972;28;20287;-76
2024/02/12 07:50:51;;;;;;;1.60;1.37;;;6.20;99.90;;;;;;5048275;28;21183;-76
2024/02/12 07:53:24;;;;;;;1.60;1.50;;;6.20;99.90;;;;;;5048267;28;20630;-76
2024/02/12 07:55:51;;;;;;;2.37;1.40;;;6.20;99.90;;;;;;5047756;28;21265;-76
2024/02/12 07:58:19;;;;;;;1.60;1.40;;;6.40;99.90;;;;;;5046468;28;20618;-76
2024/02/12 08:00:48;;;;;;;6.33;1.43;;;6.40;99.90;;;;;;5041955;28;20732;-76
2024/02/12 08:03:17;;;;;;;2.23;1.77;;;6.50;99.90;;;;;;5037492;28;21443;-76
2024/02/12 08:05:46;;;;;;;2.53;1.30;;;6.50;99.90;;;;;;5039222;28;21183;-76
2024/02/12 08:08:13;;;;;;;4.30;1.33;;;6.50;99.90;;;;;;5041163;28;20633;-76
2024/02/12 08:10:40;;;;;;;3.00;1.10;;;6.50;99.90;;;;;;5045520;28;20639;-76
2024/02/12 08:13:07;;;;;;;1.23;1.10;;;6.50;99.90;;;;;;5047728;28;20634;-75
2024/02/12 08:15:34;;;;;;;1.87;1.40;;;6.50;99.90;;;;;;5048348;28;20669;-76
2024/02/12 08:18:01;;;;;;;1.07;1.00;;;6.50;99.90;;;;;;5049489;28;20630;-76
2024/02/12 08:20:29;;;;;;;2.27;1.13;;;6.60;99.90;;;;;;5048151;28;20699;-76
2024/02/12 08:22:57;;;;;;;0.80;0.80;;;6.60;99.90;;;;;;5046160;28;20629;-76
2024/02/12 08:25:26;;;;;;;2.60;1.77;;;6.60;99.90;;;;;;5042891;28;20631;-76
2024/02/12 08:27:55;;;;;;;0.93;0.87;;;6.60;99.90;;;;;;5042664;28;20752;-76
2024/02/12 08:30:22;;;;;;;1.33;1.07;;;6.60;99.90;;;;;;5040858;28;20684;-76
2024/02/12 08:32:49;;;;;;;1.20;1.03;;;6.60;99.90;;;;;;5046853;28;20999;-76
2024/02/12 08:35:16;;;;;;;1.40;1.00;;;6.70;99.90;;;;;;5036937;28;20655;-76
2024/02/12 08:37:42;;;;;;;1.23;1.17;;;6.70;99.90;;;;;;5041929;28;20633;-76
2024/02/12 08:40:12;;;;;;;1.53;1.33;;;6.80;99.90;;;;;;5046431;28;20629;-76
2024/02/12 08:42:41;;;;;;;1.50;1.40;;;6.90;99.90;;;;;;5043635;28;21262;-76
2024/02/12 08:45:10;;;;;;;1.40;1.20;;;6.80;99.90;;;;;;5048621;28;20642;-75
2024/02/12 08:47:37;;;;;;;0.90;0.90;;;6.80;99.90;;;;;;5048143;28;20633;-76
2024/02/12 08:50:05;;;;;;;0.73;0.73;;;6.90;99.90;;;;;;5042693;28;20634;-76
2024/02/12 08:52:32;;;;;;;1.77;1.03;;;6.90;99.90;;;;;;5043899;28;20696;-76
2024/02/12 08:54:59;;;;;;;0.90;0.87;;;7.50;99.90;;;;;;5045849;28;20634;-76
2024/02/12 08:57:27;;;;;;;2.10;1.40;;;7.10;99.90;;;;;;5044907;28;20620;-76
2024/02/12 08:59:54;;;;;;;1.17;1.07;;;7.00;99.90;;;;;;5049785;28;20637;-76
2024/02/12 09:02:25;;;;;;;1.10;1.00;;;7.30;99.90;;;;;;5041249;28;20630;-76
2024/02/12 09:04:52;;;;;;;1.60;1.20;;;;;;;;;;5041283;28;21155;-76
2024/02/12 09:07:20;;;;;;;1.27;1.17;;;7.10;99.90;;;;;;5039582;28;20649;-76
2024/02/12 09:09:47;;;;;;;1.50;1.20;;;7.10;99.90;;;;;;5047098;28;20638;-76
2024/02/12 09:12:14;;;;;;;2.20;1.20;;;7.20;99.90;;;;;;5043759;28;20980;-76
2024/02/12 09:14:42;;;;;;;1.30;1.20;;;7.20;99.90;;;;;;5041104;28;20669;-76
2024/02/12 09:17:09;;;;;;;1.90;1.77;;;7.30;99.90;;;;;;5037615;28;20687;-76
2024/02/12 09:19:36;;;;;;;1.63;1.27;;;7.40;99.90;;;;;;5040595;28;20722;-76
2024/02/12 09:22:04;;;;;;;1.57;1.43;;;7.50;99.90;;;;;;5046978;28;20726;-76
2024/02/12 09:24:32;;;;;;;2.30;2.00;;;7.50;99.90;;;;;;5041414;28;20630;-76
2024/02/12 09:26:59;;;;;;;1.60;1.50;;;7.70;99.90;;;;;;5046603;28;21259;-76
2024/02/12 09:29:26;;;;;;;1.70;1.60;;;7.70;99.90;;;;;;5047059;28;20706;-77
2024/02/12 09:31:55;;;;;;;2.57;1.23;;;7.80;99.90;;;;;;5047248;28;20654;-77
2024/02/12 09:34:22;;;;;;;2.03;1.83;;;7.70;99.90;;;;;;5045401;28;20645;-76
2024/02/12 09:36:49;;;;;;;1.50;1.40;;;7.80;99.90;;;;;;5040977;28;20728;-76
2024/02/12 09:39:16;;;;;;;1.73;1.20;;;7.70;99.90;;;;;;5047678;28;20634;-76
2024/02/12 09:41:47;;;;;;;1.53;1.43;;;7.70;99.90;;;;;;5040081;28;21228;-76
2024/02/12 09:44:16;;;;;;;2.00;1.33;;;7.70;99.90;;;;;;5042743;28;20638;-76
2024/02/12 09:46:46;;;;;;;1.73;1.43;;;7.80;99.90;;;;;;5044946;28;20639;-76
2024/02/12 09:49:16;;;;;;;1.87;1.70;;;7.90;99.90;;;;;;5045943;28;20673;-76
2024/02/12 09:51:46;;;;;;;2.00;1.60;;;7.80;99.90;;;;;;5038237;28;21043;-76
2024/02/12 09:54:15;;;;;;;2.33;1.80;;;7.80;99.90;;;;;;5047465;28;20630;-76
2024/02/12 09:56:43;;;;;;;1.27;1.17;;;7.80;99.90;;;;;;5039428;28;20670;-76
2024/02/12 09:59:10;;;;;;;3.23;2.20;;;8.00;99.90;;;;;;5039342;28;20731;-76
2024/02/12 10:01:37;;;;;;;2.23;1.40;;;8.10;99.90;;;;;;5045905;28;20627;-76
2024/02/12 10:04:04;;;;;;;3.27;2.17;;;8.20;99.90;;;;;;5040424;28;20980;-76
2024/02/12 10:06:33;;;;;;;2.40;1.70;;;8.30;99.90;;;;;;5046806;28;20623;-77
2024/02/12 10:09:07;;;;;;;3.07;1.87;;;8.30;99.90;;;;;;5046887;28;20644;-76
2024/02/12 10:11:33;;;;;;;3.00;2.73;;;8.30;99.90;;;;;;5038046;28;20987;-76
2024/02/12 10:14:04;;;;;;;3.30;2.23;;;8.30;99.90;;;;;;5045641;28;20629;-76
2024/02/12 10:16:31;;;;;;;3.67;1.83;;;8.30;99.90;;;;;;5038696;28;20675;-76
2024/02/12 10:18:58;;;;;;;3.33;2.37;;;8.20;99.90;;;;;;5045318;28;20795;-76
2024/02/12 10:21:26;;;;;;;1.70;1.60;;;8.20;99.90;;;;;;5038754;28;20643;-76
2024/02/12 10:23:54;;;;;;;2.10;1.90;;;8.10;99.90;;;;;;5044508;28;20650;-77
2024/02/12 10:26:23;;;;;;;2.47;1.77;;;8.10;99.90;;;;;;5038103;28;21054;-76
2024/02/12 10:28:54;;;;;;;1.97;1.70;;;8.00;99.90;;;;;;5033502;28;20626;-76
2024/02/12 10:31:23;;;;;;;3.70;1.47;;;8.00;99.90;;;;;;5030853;28;20631;-76
2024/02/12 10:33:51;;;;;;;1.40;1.13;;;7.90;99.90;;;;;;5040263;28;21255;-76
2024/02/12 10:36:19;;;;;;;2.97;1.80;;;7.90;99.90;;;;;;5045800;28;20650;-76
2024/02/12 10:38:48;;;;;;;1.93;1.57;;;7.80;99.90;;;;;;5043765;28;20658;-76
2024/02/12 10:41:22;;;;;;;1.60;1.50;;;7.80;99.90;;;;;;5043670;28;20617;-76
2024/02/12 10:43:51;;;;;;;2.07;1.50;;;7.80;99.90;;;;;;5033287;28;20654;-77
2024/02/12 10:46:18;;;;;;;1.90;1.60;;;7.90;99.90;;;;;;5044065;28;20641;-77
2024/02/12 10:48:46;;;;;;;3.50;2.67;;;8.00;99.90;;;;;;5043241;28;20618;-76
2024/02/12 10:51:15;;;;;;;3.10;2.80;;;8.00;99.90;;;;;;5038933;28;21021;-76
2024/02/12 10:53:42;;;;;;;2.23;1.70;;;8.10;99.90;;;;;;5041490;28;20630;-76
2024/02/12 10:56:09;;;;;;;2.97;2.10;;;8.20;99.90;;;;;;5045286;28;20681;-76
2024/02/12 10:58:38;;;;;;;1.80;1.43;;;8.10;99.90;;;;;;5042332;28;20999;-76
2024/02/12 11:01:06;;;;;;;2.60;1.77;;;8.10;99.90;;;;;;5041737;28;20639;-76
2024/02/12 11:03:36;;;;;;;1.93;1.83;;;8.20;99.90;;;;;;5044120;28;20638;-76
2024/02/12 11:06:04;;;;;;;3.00;2.00;;;8.00;99.90;;;;;;5043337;28;20626;-75
2024/02/12 11:08:36;;;;;;;2.90;2.10;;;8.10;99.90;;;;;;5042970;28;20723;-72
2024/02/12 11:11:03;;;;;;;2.80;2.03;;;8.20;99.90;;;;;;5045915;28;20670;-72
2024/02/12 11:13:42;;;;;;;1.93;1.20;;;8.30;99.90;;;;;;5045509;28;21219;-72
2024/02/12 11:16:13;;;;;;;1.57;1.47;;;8.40;99.90;;;;;;5042304;28;20650;-72
2024/02/12 11:18:40;;;;;;;2.23;1.17;;;8.30;99.70;;;;;;5045534;28;20626;-72
2024/02/12 11:21:08;;;;;;;1.60;1.30;;;7.90;99.90;;;;;;5047123;28;20637;-71
2024/02/12 11:23:35;;;;;;;1.77;1.67;;;8.10;99.90;;;;;;5037712;28;20634;-72
2024/02/12 11:26:04;;;;;;;1.40;1.30;;;8.00;99.90;;;;;;5037142;28;21172;-72
2024/02/12 11:28:32;;;;;;;2.17;1.93;;;8.10;99.90;;;;;;5044753;28;20638;-72
2024/02/12 11:31:00;;;;;;;6.70;2.17;;;8.20;99.90;;;;;;5046643;28;20631;-72
2024/02/12 11:33:27;;;;;;;2.20;2.00;;;8.20;99.90;;;;;;5045434;28;20622;-72
2024/02/12 11:36:06;;;;;;;3.97;1.70;;;8.20;99.90;;;;;;5046752;28;21080;-72
2024/02/12 11:38:35;;;;;;;3.13;2.10;;;8.20;99.90;;;;;;5046389;28;20625;-77
2024/02/12 11:41:04;;;;;;;2.27;1.90;;;8.20;99.90;;;;;;5039636;28;20733;-73
2024/02/12 11:43:32;;;;;;;1.80;1.70;;;8.20;99.90;;;;;;5049585;28;20964;-74
2024/02/12 11:46:02;;;;;;;1.90;1.70;;;8.20;99.90;;;;;;5048693;28;20631;-73
2024/02/12 11:48:29;;;;;;;3.77;2.63;;;8.20;99.90;;;;;;5046239;28;21208;-72
2024/02/12 11:50:56;;;;;;;3.37;1.90;;;8.20;99.90;;;;;;5048568;28;20980;-71
2024/02/12 11:53:24;;;;;;;3.03;2.23;;;8.20;99.90;;;;;;5049023;28;20639;-75
2024/02/12 11:55:52;;;;;;;3.50;3.07;;;8.20;99.90;;;;;;5049569;28;20665;-73
2024/02/12 11:58:19;;;;;;;2.30;2.07;;;8.50;99.90;;;;;;5049628;28;20700;-77
2024/02/12 12:00:46;;;;;;;7.00;2.87;;;8.40;99.90;;;;;;5043626;28;20734;-74
2024/02/12 12:03:15;;;;;;;3.90;2.27;;;8.60;99.90;;;;;;5045796;28;20734;-74
2024/02/12 12:05:43;;;;;;;2.27;1.67;;;8.60;99.90;;;;;;5048513;28;20636;-74
2024/02/12 12:08:11;;;;;;;1.60;1.50;;;8.60;99.90;;;;;;5049998;28;20623;-73
2024/02/12 12:10:37;;;;;;;2.20;1.80;;;8.70;99.90;;;;;;5038296;28;20630;-76
2024/02/12 12:13:04;;;;;;;3.53;1.30;;;8.70;99.90;;;;;;5045513;28;20715;-73
2024/02/12 12:15:31;;;;;;;1.50;1.27;;;8.70;99.90;;;;;;5045737;28;20632;-73
2024/02/12 12:17:59;;;;;;;0.90;0.90;;;8.70;99.90;;;;;;5049584;28;20676;-72
2024/02/12 12:20:29;;;;;;;1.40;1.30;;;8.60;99.90;;;;;;5050113;28;20627;-73
2024/02/12 12:22:57;;;;;;;1.40;1.30;;;8.60;99.90;;;;;;5044669;28;20972;-73
2024/02/12 12:25:24;;;;;;;2.03;1.40;;;8.80;99.90;;;;;;5039062;28;21185;-73
2024/02/12 12:27:51;;;;;;;1.00;1.00;;;8.60;99.80;;;;;;5048274;28;21042;-73
2024/02/12 12:30:19;;;;;;;4.00;1.00;;;8.70;99.90;;;;;;5045360;28;20663;-72
2024/02/12 12:32:48;;;;;;;5.80;1.33;;;8.80;99.90;;;;;;5048791;28;20699;-73
2024/02/12 12:35:15;;;;;;;1.20;1.10;;;8.70;99.90;;;;;;5048988;28;20964;-73
2024/02/12 12:37:45;;;;;;;2.13;1.20;;;8.60;99.50;;;;;;5049290;28;21161;-72
2024/02/12 12:40:18;;;;;;;1.27;1.17;;;9.30;99.80;;;;;;5048588;28;20666;-72
2024/02/12 12:42:47;;;;;;;1.63;1.27;;;8.60;99.90;;;;;;5048738;28;20983;-72
2024/02/12 12:45:15;;;;;;;2.37;0.97;;;9.50;99.90;;;;;;5048994;28;20630;-73
2024/02/12 12:47:42;;;;;;;3.07;1.70;;;8.60;99.90;;;;;;5049159;28;20937;-73
2024/02/12 12:50:10;;;;;;;1.40;1.20;;;8.60;99.90;;;;;;5048901;28;20634;-73
2024/02/12 12:52:38;;;;;;;4.20;1.37;;;8.40;99.90;;;;;;5047303;28;20727;-72
2024/02/12 12:55:08;;;;;;;1.33;1.00;;;8.60;99.90;;;;;;5045294;28;20632;-72
2024/02/12 12:57:35;;;;;;;1.20;1.10;;;8.60;99.90;;;;;;5048037;28;20668;-72
2024/02/12 13:00:05;;;;;;;1.17;1.07;;;8.70;99.90;;;;;;5049425;28;20642;-73
2024/02/12 13:02:33;;;;;;;0.83;0.83;;;8.80;99.90;;;;;;5048079;28;20631;-73
2024/02/12 13:05:02;;;;;;;1.67;1.33;;;8.80;99.30;;;;;;5048200;28;20632;-73
2024/02/12 13:07:29;;;;;;;1.30;1.20;;;8.80;98.60;;;;;;5048502;28;20703;-73
2024/02/12 13:09:55;;;;;;;1.00;0.93;;;8.70;99.90;;;;;;5048879;28;20630;-73
2024/02/12 13:12:24;;;;;;;1.17;1.10;;;8.60;98.50;;;;;;5048488;28;20637;-72
2024/02/12 13:14:51;;;;;;;1.93;1.10;;;8.60;99.70;;;;;;5048062;28;20722;-73
2024/02/12 13:17:18;;;;;;;2.00;1.23;;;8.70;99.30;;;;;;5048026;28;20773;-72